sensor_id;sensor_type;location;lat;lon;timestamp;pressure;altitude;pressure_sealevel;temperature;humidity
12801;BME280;6464;42.494;27.470;2022-08-21T05:05:07;100314.06;;;23.80;100.00
12801;BME280;6464;42.494;27.470;2022-08-21T05:07:35;100302.09;;;23.84;100.00
12801;BME280;6464;42.494;27.470;2022-08-21T05:10:04;100307.56;;;24.05;100.00
12801;BME280;6464;42.494;27.470;2022-08-21T05:12:33;100312.34;;;24.02;100.00
12801;BME280;6464;42.494;27.470;2022-08-21T05:15:01;100250.81;;;23.75;100.00
12801;BME280;6464;42.494;27.470;2022-08-21T05:17:28;100293.59;;;24.23;100.00
12801;BME280;6464;42.494;27.470;2022-08-21T05:19:57;100234.69;;;24.07;100.00
12801;BME280;6464;42.494;27.470;2022-08-21T05:22:25;100298.03;;;24.56;100.00
12801;BME280;6464;42.494;27.470;2022-08-21T05:24:52;100327.69;;;24.88;100.00
12801;BME280;6464;42.494;27.470;2022-08-21T05:27:19;100337.28;;;24.81;100.00
12801;BME280;6464;42.494;27.470;2022-08-21T05:29:46;100347.69;;;24.85;100.00
12801;BME280;6464;42.494;27.470;2022-08-21T05:32:13;100344.63;;;24.79;100.00
12801;BME280;6464;42.494;27.470;2022-08-21T05:34:40;100353.03;;;24.97;100.00
12801;BME280;6464;42.494;27.470;2022-08-21T05:37:10;100301.00;;;24.53;100.00
12801;BME280;6464;42.494;27.470;2022-08-21T05:39:39;100354.03;;;24.96;100.00
12801;BME280;6464;42.494;27.470;2022-08-21T05:42:07;100349.50;;;24.85;100.00
12801;BME280;6464;42.494;27.470;2022-08-21T05:44:34;100341.09;;;24.78;100.00
12801;BME280;6464;42.494;27.470;2022-08-21T05:47:05;100347.31;;;24.90;100.00
12801;BME280;6464;42.494;27.470;2022-08-21T05:49:33;100338.69;;;24.96;100.00
12801;BME280;6464;42.494;27.470;2022-08-21T05:52:01;100385.72;;;25.15;100.00
12801;BME280;6464;42.494;27.470;2022-08-21T05:54:28;100416.44;;;25.34;100.00
12801;BME280;6464;42.494;27.470;2022-08-21T05:56:56;100378.97;;;25.20;100.00
12801;BME280;6464;42.494;27.470;2022-08-21T05:59:23;100448.97;;;25.75;100.00
12801;BME280;6464;42.494;27.470;2022-08-21T06:01:50;100451.84;;;26.04;100.00
12801;BME280;6464;42.494;27.470;2022-08-21T06:04:18;100454.06;;;26.20;100.00
12801;BME280;6464;42.494;27.470;2022-08-21T06:06:46;100484.53;;;26.52;100.00
12801;BME280;6464;42.494;27.470;2022-08-21T06:09:13;100483.47;;;26.64;100.00
12801;BME280;6464;42.494;27.470;2022-08-21T06:11:40;100514.28;;;26.92;100.00
12801;BME280;6464;42.494;27.470;2022-08-21T06:14:09;100536.00;;;27.12;100.00
12801;BME280;6464;42.494;27.470;2022-08-21T06:16:36;100551.41;;;27.21;100.00
12801;BME280;6464;42.494;27.470;2022-08-21T06:19:03;100597.00;;;26.85;100.00
12801;BME280;6464;42.494;27.470;2022-08-21T06:21:30;100593.97;;;26.69;100.00
12801;BME280;6464;42.494;27.470;2022-08-21T06:23:57;100569.63;;;26.48;100.00
12801;BME280;6464;42.494;27.470;2022-08-21T06:26:24;100591.63;;;26.55;100.00
12801;BME280;6464;42.494;27.470;2022-08-21T06:28:51;100592.41;;;26.46;100.00
12801;BME280;6464;42.494;27.470;2022-08-21T06:31:22;100609.31;;;26.69;100.00
12801;BME280;6464;42.494;27.470;2022-08-21T06:33:50;100630.47;;;26.84;100.00
12801;BME280;6464;42.494;27.470;2022-08-21T06:36:18;100628.38;;;26.67;100.00
12801;BME280;6464;42.494;27.470;2022-08-21T06:38:46;100634.25;;;26.72;100.00
12801;BME280;6464;42.494;27.470;2022-08-21T06:41:13;100667.28;;;26.97;100.00
12801;BME280;6464;42.494;27.470;2022-08-21T06:43:40;100630.63;;;26.62;100.00
12801;BME280;6464;42.494;27.470;2022-08-21T06:46:07;100705.59;;;27.02;100.00
12801;BME280;6464;42.494;27.470;2022-08-21T06:48:36;100691.44;;;27.09;100.00
12801;BME280;6464;42.494;27.470;2022-08-21T06:51:03;100652.94;;;26.75;100.00
12801;BME280;6464;42.494;27.470;2022-08-21T06:53:30;100669.25;;;26.95;100.00
12801;BME280;6464;42.494;27.470;2022-08-21T06:55:58;100656.41;;;27.08;100.00
12801;BME280;6464;42.494;27.470;2022-08-21T06:58:25;100715.59;;;27.32;100.00
12801;BME280;6464;42.494;27.470;2022-08-21T07:00:52;100727.66;;;27.49;100.00
12801;BME280;6464;42.494;27.470;2022-08-21T07:03:21;100733.25;;;27.57;100.00
12801;BME280;6464;42.494;27.470;2022-08-21T07:05:50;100747.09;;;27.63;100.00
12801;BME280;6464;42.494;27.470;2022-08-21T07:08:18;100754.31;;;27.84;100.00
12801;BME280;6464;42.494;27.470;2022-08-21T07:10:45;100719.78;;;27.46;100.00
12801;BME280;6464;42.494;27.470;2022-08-21T07:13:15;100731.38;;;27.48;100.00
12801;BME280;6464;42.494;27.470;2022-08-21T07:15:43;100746.31;;;27.82;100.00
12801;BME280;6464;42.494;27.470;2022-08-21T07:18:11;100773.31;;;28.03;100.00
12801;BME280;6464;42.494;27.470;2022-08-21T07:20:39;100722.66;;;27.44;100.00
12801;BME280;6464;42.494;27.470;2022-08-21T07:23:10;100786.31;;;27.69;100.00
12801;BME280;6464;42.494;27.470;2022-08-21T07:25:39;100797.78;;;27.73;100.00
12801;BME280;6464;42.494;27.470;2022-08-21T07:28:06;100795.09;;;27.82;100.00
12801;BME280;6464;42.494;27.470;2022-08-21T07:30:33;100821.66;;;27.88;100.00
12801;BME280;6464;42.494;27.470;2022-08-21T07:33:00;100792.00;;;27.56;100.00
12801;BME280;6464;42.494;27.470;2022-08-21T07:35:27;100781.69;;;27.71;100.00
12801;BME280;6464;42.494;27.470;2022-08-21T07:37:56;100793.75;;;27.67;100.00
12801;BME280;6464;42.494;27.470;2022-08-21T07:40:25;100799.88;;;27.69;100.00
12801;BME280;6464;42.494;27.470;2022-08-21T07:42:52;100783.50;;;27.40;100.00
12801;BME280;6464;42.494;27.470;2022-08-21T07:45:20;100794.41;;;27.59;100.00
12801;BME280;6464;42.494;27.470;2022-08-21T07:47:50;100794.38;;;27.50;100.00
12801;BME280;6464;42.494;27.470;2022-08-21T07:50:18;100792.09;;;27.76;100.00
12801;BME280;6464;42.494;27.470;2022-08-21T07:52:46;100799.09;;;27.78;100.00
12801;BME280;6464;42.494;27.470;2022-08-21T07:55:16;100779.97;;;27.80;100.00
12801;BME280;6464;42.494;27.470;2022-08-21T07:57:46;100787.31;;;27.68;100.00
12801;BME280;6464;42.494;27.470;2022-08-21T08:00:18;100790.97;;;27.78;100.00
12801;BME280;6464;42.494;27.470;2022-08-21T08:02:47;100752.78;;;27.60;100.00
12801;BME280;6464;42.494;27.470;2022-08-21T08:05:19;100786.19;;;28.01;100.00
12801;BME280;6464;42.494;27.470;2022-08-21T08:07:46;100822.31;;;28.21;100.00
12801;BME280;6464;42.494;27.470;2022-08-21T08:10:15;100766.31;;;27.81;100.00
12801;BME280;6464;42.494;27.470;2022-08-21T08:12:45;100819.47;;;28.23;100.00
12801;BME280;6464;42.494;27.470;2022-08-21T08:15:16;100816.69;;;28.34;100.00
12801;BME280;6464;42.494;27.470;2022-08-21T08:17:43;100799.78;;;28.30;100.00
12801;BME280;6464;42.494;27.470;2022-08-21T08:20:12;100835.81;;;28.61;100.00
12801;BME280;6464;42.494;27.470;2022-08-21T08:22:39;100795.47;;;28.28;100.00
12801;BME280;6464;42.494;27.470;2022-08-21T08:25:08;100814.41;;;28.68;100.00
12801;BME280;6464;42.494;27.470;2022-08-21T08:27:37;100813.97;;;28.43;100.00
12801;BME280;6464;42.494;27.470;2022-08-21T08:30:08;100825.38;;;28.47;100.00
12801;BME280;6464;42.494;27.470;2022-08-21T08:32:36;100824.59;;;28.16;100.00
12801;BME280;6464;42.494;27.470;2022-08-21T08:35:04;100816.91;;;28.21;100.00
12801;BME280;6464;42.494;27.470;2022-08-21T08:37:32;100803.78;;;28.26;100.00
12801;BME280;6464;42.494;27.470;2022-08-21T08:39:59;100747.16;;;27.73;100.00
12801;BME280;6464;42.494;27.470;2022-08-21T08:42:30;100823.81;;;28.64;100.00
12801;BME280;6464;42.494;27.470;2022-08-21T08:45:00;100833.25;;;28.89;100.00
12801;BME280;6464;42.494;27.470;2022-08-21T08:47:31;100832.69;;;29.05;100.00
12801;BME280;6464;42.494;27.470;2022-08-21T08:50:03;100826.97;;;29.08;100.00
12801;BME280;6464;42.494;27.470;2022-08-21T08:52:33;100817.09;;;29.16;100.00
12801;BME280;6464;42.494;27.470;2022-08-21T08:55:03;100808.63;;;29.19;100.00
12801;BME280;6464;42.494;27.470;2022-08-21T08:57:32;100802.91;;;29.32;100.00
12801;BME280;6464;42.494;27.470;2022-08-21T09:00:05;100797.50;;;29.23;100.00
12801;BME280;6464;42.494;27.470;2022-08-21T09:02:34;100802.13;;;29.50;100.00
12801;BME280;6464;42.494;27.470;2022-08-21T09:05:03;100786.19;;;29.27;100.00
12801;BME280;6464;42.494;27.470;2022-08-21T09:07:35;100790.69;;;29.56;100.00
12801;BME280;6464;42.494;27.470;2022-08-21T09:10:13;100769.25;;;28.67;100.00
12801;BME280;6464;42.494;27.470;2022-08-21T09:12:51;100763.38;;;28.23;100.00
12801;BME280;6464;42.494;27.470;2022-08-21T09:15:27;100790.97;;;28.48;100.00
12801;BME280;6464;42.494;27.470;2022-08-21T09:18:20;100783.56;;;28.50;100.00
12801;BME280;6464;42.494;27.470;2022-08-21T09:21:01;100782.97;;;28.75;100.00
12801;BME280;6464;42.494;27.470;2022-08-21T09:23:36;100748.66;;;28.84;100.00
12801;BME280;6464;42.494;27.470;2022-08-21T09:26:12;100799.75;;;29.27;100.00
12801;BME280;6464;42.494;27.470;2022-08-21T09:28:40;100803.56;;;28.97;100.00
12801;BME280;6464;42.494;27.470;2022-08-21T09:31:11;100791.25;;;29.03;100.00
12801;BME280;6464;42.494;27.470;2022-08-21T09:33:43;100801.53;;;30.38;100.00
12801;BME280;6464;42.494;27.470;2022-08-21T09:36:10;100799.44;;;30.68;100.00
12801;BME280;6464;42.494;27.470;2022-08-21T09:38:37;100842.00;;;31.57;100.00
12801;BME280;6464;42.494;27.470;2022-08-21T09:41:06;100822.09;;;31.82;100.00
12801;BME280;6464;42.494;27.470;2022-08-21T09:43:34;100838.13;;;32.36;100.00
12801;BME280;6464;42.494;27.470;2022-08-21T09:46:06;100820.94;;;31.67;100.00
12801;BME280;6464;42.494;27.470;2022-08-21T09:48:45;100787.94;;;31.18;100.00
12801;BME280;6464;42.494;27.470;2022-08-21T09:51:15;100773.19;;;31.03;100.00
12801;BME280;6464;42.494;27.470;2022-08-21T09:53:46;100791.03;;;30.79;100.00
12801;BME280;6464;42.494;27.470;2022-08-21T09:56:21;100834.31;;;31.78;100.00
12801;BME280;6464;42.494;27.470;2022-08-21T09:59:18;100813.00;;;32.24;100.00
12801;BME280;6464;42.494;27.470;2022-08-21T10:01:49;100812.41;;;31.88;100.00
12801;BME280;6464;42.494;27.470;2022-08-21T10:04:22;100798.41;;;31.57;100.00
12801;BME280;6464;42.494;27.470;2022-08-21T10:06:50;100790.25;;;31.05;100.00
12801;BME280;6464;42.494;27.470;2022-08-21T10:09:18;100825.72;;;31.99;100.00
12801;BME280;6464;42.494;27.470;2022-08-21T10:11:52;100840.03;;;33.66;100.00
12801;BME280;6464;42.494;27.470;2022-08-21T10:14:41;100804.31;;;33.59;100.00
12801;BME280;6464;42.494;27.470;2022-08-21T10:17:15;100775.44;;;34.04;100.00
12801;BME280;6464;42.494;27.470;2022-08-21T10:19:53;100834.63;;;33.89;100.00
12801;BME280;6464;42.494;27.470;2022-08-21T10:22:31;100817.16;;;33.50;100.00
12801;BME280;6464;42.494;27.470;2022-08-21T10:25:07;100766.97;;;33.83;100.00
12801;BME280;6464;42.494;27.470;2022-08-21T10:27:43;100844.03;;;34.65;100.00
12801;BME280;6464;42.494;27.470;2022-08-21T10:30:17;100806.94;;;33.84;100.00
12801;BME280;6464;42.494;27.470;2022-08-21T10:33:07;100815.09;;;33.61;100.00
12801;BME280;6464;42.494;27.470;2022-08-21T10:35:43;100838.03;;;34.61;100.00
12801;BME280;6464;42.494;27.470;2022-08-21T10:38:35;100846.25;;;34.84;100.00
12801;BME280;6464;42.494;27.470;2022-08-21T10:41:11;100809.69;;;34.54;100.00
12801;BME280;6464;42.494;27.470;2022-08-21T10:43:47;100838.50;;;34.73;100.00
12801;BME280;6464;42.494;27.470;2022-08-21T10:46:24;100818.41;;;34.26;100.00
12801;BME280;6464;42.494;27.470;2022-08-21T10:48:59;100739.28;;;33.30;100.00
12801;BME280;6464;42.494;27.470;2022-08-21T10:51:39;100779.16;;;32.84;100.00
12801;BME280;6464;42.494;27.470;2022-08-21T10:54:12;100821.00;;;34.20;100.00
12801;BME280;6464;42.494;27.470;2022-08-21T10:56:43;100819.56;;;33.45;100.00
12801;BME280;6464;42.494;27.470;2022-08-21T10:59:25;100806.81;;;33.77;100.00
12801;BME280;6464;42.494;27.470;2022-08-21T11:02:00;100780.63;;;34.45;100.00
12801;BME280;6464;42.494;27.470;2022-08-21T11:04:31;100812.50;;;33.67;100.00
12801;BME280;6464;42.494;27.470;2022-08-21T11:07:04;100787.06;;;33.50;100.00
12801;BME280;6464;42.494;27.470;2022-08-21T11:09:33;100813.94;;;34.57;100.00
12801;BME280;6464;42.494;27.470;2022-08-21T11:12:05;100776.59;;;34.64;100.00
12801;BME280;6464;42.494;27.470;2022-08-21T11:14:39;100813.34;;;34.69;100.00
12801;BME280;6464;42.494;27.470;2022-08-21T11:17:11;100827.50;;;35.34;100.00
12801;BME280;6464;42.494;27.470;2022-08-21T11:19:44;100798.25;;;34.42;100.00
12801;BME280;6464;42.494;27.470;2022-08-21T11:22:18;100814.78;;;35.03;100.00
12801;BME280;6464;42.494;27.470;2022-08-21T11:24:52;100808.00;;;34.53;100.00
12801;BME280;6464;42.494;27.470;2022-08-21T11:27:26;100812.94;;;34.58;100.00
12801;BME280;6464;42.494;27.470;2022-08-21T11:29:56;100789.22;;;34.19;100.00
12801;BME280;6464;42.494;27.470;2022-08-21T11:32:39;100804.22;;;35.15;100.00
12801;BME280;6464;42.494;27.470;2022-08-21T11:35:26;100821.28;;;35.40;100.00
12801;BME280;6464;42.494;27.470;2022-08-21T11:38:13;100789.63;;;34.99;100.00
12801;BME280;6464;42.494;27.470;2022-08-21T11:40:54;100753.66;;;34.80;100.00
12801;BME280;6464;42.494;27.470;2022-08-21T11:43:38;100794.56;;;34.81;100.00
12801;BME280;6464;42.494;27.470;2022-08-21T11:46:14;100797.31;;;34.81;100.00
12801;BME280;6464;42.494;27.470;2022-08-21T11:48:53;100816.94;;;35.31;100.00
12801;BME280;6464;42.494;27.470;2022-08-21T11:51:30;100804.75;;;35.63;100.00
12801;BME280;6464;42.494;27.470;2022-08-21T11:54:05;100800.06;;;35.34;100.00
12801;BME280;6464;42.494;27.470;2022-08-21T11:56:37;100786.84;;;35.22;100.00
12801;BME280;6464;42.494;27.470;2022-08-21T11:59:11;100780.22;;;34.56;100.00
12801;BME280;6464;42.494;27.470;2022-08-21T12:01:43;100721.91;;;34.85;100.00
12801;BME280;6464;42.494;27.470;2022-08-21T12:04:18;100796.00;;;35.15;100.00
12801;BME280;6464;42.494;27.470;2022-08-21T12:06:49;100765.09;;;34.83;100.00
12801;BME280;6464;42.494;27.470;2022-08-21T12:09:34;100775.97;;;34.54;100.00
12801;BME280;6464;42.494;27.470;2022-08-21T12:12:05;100783.25;;;35.22;100.00
12801;BME280;6464;42.494;27.470;2022-08-21T12:14:37;100777.88;;;34.91;100.00
12801;BME280;6464;42.494;27.470;2022-08-21T12:17:06;100769.59;;;34.76;100.00
12801;BME280;6464;42.494;27.470;2022-08-21T12:19:34;100715.91;;;33.28;100.00
12801;BME280;6464;42.494;27.470;2022-08-21T12:22:09;100740.22;;;33.93;100.00
12801;BME280;6464;42.494;27.470;2022-08-21T12:24:41;100770.16;;;34.25;100.00
12801;BME280;6464;42.494;27.470;2022-08-21T12:27:21;100731.53;;;32.62;100.00
12801;BME280;6464;42.494;27.470;2022-08-21T12:29:53;100731.00;;;32.66;100.00
12801;BME280;6464;42.494;27.470;2022-08-21T12:32:25;100715.47;;;32.67;100.00
12801;BME280;6464;42.494;27.470;2022-08-21T12:34:55;100714.44;;;32.84;100.00
12801;BME280;6464;42.494;27.470;2022-08-21T12:37:30;100733.75;;;32.99;100.00
12801;BME280;6464;42.494;27.470;2022-08-21T12:40:04;100731.16;;;33.92;100.00
12801;BME280;6464;42.494;27.470;2022-08-21T12:42:41;100743.59;;;34.34;100.00
12801;BME280;6464;42.494;27.470;2022-08-21T12:45:17;100746.34;;;34.03;100.00
12801;BME280;6464;42.494;27.470;2022-08-21T12:47:48;100749.88;;;34.81;100.00
12801;BME280;6464;42.494;27.470;2022-08-21T12:50:21;100758.38;;;35.09;100.00
12801;BME280;6464;42.494;27.470;2022-08-21T12:52:57;100750.34;;;35.22;100.00
12801;BME280;6464;42.494;27.470;2022-08-21T12:55:31;100697.06;;;34.72;100.00
12801;BME280;6464;42.494;27.470;2022-08-21T12:57:59;100731.22;;;34.99;100.00
12801;BME280;6464;42.494;27.470;2022-08-21T13:00:28;100756.69;;;35.37;100.00
12801;BME280;6464;42.494;27.470;2022-08-21T13:02:56;100679.75;;;34.57;100.00
12801;BME280;6464;42.494;27.470;2022-08-21T13:05:29;100740.44;;;35.36;100.00
12801;BME280;6464;42.494;27.470;2022-08-21T13:07:58;100731.00;;;34.86;100.00
12801;BME280;6464;42.494;27.470;2022-08-21T13:10:29;100742.44;;;34.89;100.00
12801;BME280;6464;42.494;27.470;2022-08-21T13:12:58;100739.94;;;35.17;100.00
12801;BME280;6464;42.494;27.470;2022-08-21T13:15:29;100754.59;;;35.24;100.00
12801;BME280;6464;42.494;27.470;2022-08-21T13:17:57;100731.34;;;34.68;100.00
12801;BME280;6464;42.494;27.470;2022-08-21T13:20:29;100718.69;;;34.21;100.00
12801;BME280;6464;42.494;27.470;2022-08-21T13:22:56;100728.91;;;34.73;100.00
12801;BME280;6464;42.494;27.470;2022-08-21T13:25:29;100742.19;;;34.99;100.00
12801;BME280;6464;42.494;27.470;2022-08-21T13:27:59;100732.22;;;34.83;100.00
12801;BME280;6464;42.494;27.470;2022-08-21T13:30:27;100720.38;;;34.22;100.00
12801;BME280;6464;42.494;27.470;2022-08-21T13:32:57;100710.25;;;34.31;100.00
12801;BME280;6464;42.494;27.470;2022-08-21T13:35:28;100708.53;;;34.07;100.00
12801;BME280;6464;42.494;27.470;2022-08-21T13:37:58;100696.19;;;33.40;100.00
12801;BME280;6464;42.494;27.470;2022-08-21T13:40:30;100705.56;;;33.54;100.00
12801;BME280;6464;42.494;27.470;2022-08-21T13:42:59;100654.69;;;33.45;100.00
12801;BME280;6464;42.494;27.470;2022-08-21T13:45:31;100701.19;;;33.76;100.00
12801;BME280;6464;42.494;27.470;2022-08-21T13:48:00;100700.81;;;34.10;100.00
12801;BME280;6464;42.494;27.470;2022-08-21T13:50:28;100687.25;;;34.63;100.00
12801;BME280;6464;42.494;27.470;2022-08-21T13:52:58;100713.59;;;34.64;100.00
12801;BME280;6464;42.494;27.470;2022-08-21T13:55:36;100687.28;;;34.09;100.00
12801;BME280;6464;42.494;27.470;2022-08-21T13:58:04;100693.75;;;34.76;100.00
12801;BME280;6464;42.494;27.470;2022-08-21T14:00:33;100675.88;;;34.05;100.00
12801;BME280;6464;42.494;27.470;2022-08-21T14:03:06;100682.81;;;33.62;100.00
12801;BME280;6464;42.494;27.470;2022-08-21T14:05:36;100666.38;;;33.22;100.00
12801;BME280;6464;42.494;27.470;2022-08-21T14:08:07;100628.19;;;33.06;100.00
12801;BME280;6464;42.494;27.470;2022-08-21T14:10:41;100647.41;;;32.57;100.00
12801;BME280;6464;42.494;27.470;2022-08-21T14:13:27;100645.19;;;32.61;100.00
12801;BME280;6464;42.494;27.470;2022-08-21T14:15:57;100585.66;;;32.48;100.00
12801;BME280;6464;42.494;27.470;2022-08-21T14:18:25;100580.03;;;32.41;100.00
12801;BME280;6464;42.494;27.470;2022-08-21T14:21:03;100647.22;;;32.10;100.00
12801;BME280;6464;42.494;27.470;2022-08-21T14:23:30;100650.88;;;31.60;100.00
12801;BME280;6464;42.494;27.470;2022-08-21T14:26:02;100641.47;;;31.12;100.00
12801;BME280;6464;42.494;27.470;2022-08-21T14:28:31;100652.41;;;31.54;100.00
12801;BME280;6464;42.494;27.470;2022-08-21T14:31:11;100661.19;;;31.82;100.00
12801;BME280;6464;42.494;27.470;2022-08-21T14:33:39;100657.22;;;31.68;100.00
12801;BME280;6464;42.494;27.470;2022-08-21T14:36:06;100665.66;;;32.57;100.00
12801;BME280;6464;42.494;27.470;2022-08-21T14:38:35;100638.44;;;31.15;100.00
12801;BME280;6464;42.494;27.470;2022-08-21T14:41:11;100630.69;;;30.24;100.00
12801;BME280;6464;42.494;27.470;2022-08-21T14:43:43;100613.47;;;29.52;100.00
12801;BME280;6464;42.494;27.470;2022-08-21T14:46:11;100608.38;;;29.67;100.00
12801;BME280;6464;42.494;27.470;2022-08-21T14:48:39;100630.13;;;29.67;100.00
12801;BME280;6464;42.494;27.470;2022-08-21T14:51:06;100625.19;;;29.53;100.00
12801;BME280;6464;42.494;27.470;2022-08-21T14:53:33;100592.28;;;29.10;100.00
12801;BME280;6464;42.494;27.470;2022-08-21T14:56:00;100618.72;;;29.08;100.00
12801;BME280;6464;42.494;27.470;2022-08-21T14:58:36;100620.09;;;28.94;100.00
12801;BME280;6464;42.494;27.470;2022-08-21T15:01:04;100592.56;;;28.70;100.00
12801;BME280;6464;42.494;27.470;2022-08-21T15:03:32;100578.41;;;28.76;100.00
12801;BME280;6464;42.494;27.470;2022-08-21T15:06:00;100596.75;;;28.64;100.00
12801;BME280;6464;42.494;27.470;2022-08-21T15:08:27;100596.88;;;28.73;100.00
12801;BME280;6464;42.494;27.470;2022-08-21T15:10:54;100546.00;;;28.37;100.00
12801;BME280;6464;42.494;27.470;2022-08-21T15:13:22;100591.69;;;28.79;100.00
12801;BME280;6464;42.494;27.470;2022-08-21T15:15:53;100595.28;;;28.70;100.00
12801;BME280;6464;42.494;27.470;2022-08-21T15:18:22;100600.00;;;28.78;100.00
12801;BME280;6464;42.494;27.470;2022-08-21T15:20:50;100581.25;;;28.18;100.00
12801;BME280;6464;42.494;27.470;2022-08-21T15:23:18;100597.97;;;28.13;100.00
12801;BME280;6464;42.494;27.470;2022-08-21T15:25:46;100597.94;;;28.42;100.00
12801;BME280;6464;42.494;27.470;2022-08-21T15:28:14;100589.38;;;28.37;100.00
12801;BME280;6464;42.494;27.470;2022-08-21T15:30:43;100593.09;;;28.36;100.00
12801;BME280;6464;42.494;27.470;2022-08-21T15:33:12;100535.19;;;28.08;100.00
12801;BME280;6464;42.494;27.470;2022-08-21T15:35:39;100585.38;;;28.32;100.00
12801;BME280;6464;42.494;27.470;2022-08-21T15:38:07;100596.66;;;28.37;100.00
12801;BME280;6464;42.494;27.470;2022-08-21T15:40:34;100596.66;;;28.37;100.00
12801;BME280;6464;42.494;27.470;2022-08-21T15:43:03;100539.50;;;27.91;100.00
12801;BME280;6464;42.494;27.470;2022-08-21T15:45:31;100587.97;;;28.14;100.00
12801;BME280;6464;42.494;27.470;2022-08-21T15:47:59;100526.13;;;27.80;100.00
12801;BME280;6464;42.494;27.470;2022-08-21T15:50:28;100515.84;;;27.74;100.00
12801;BME280;6464;42.494;27.470;2022-08-21T15:52:57;100554.75;;;27.92;100.00
12801;BME280;6464;42.494;27.470;2022-08-21T15:55:24;100564.59;;;27.93;100.00
12801;BME280;6464;42.494;27.470;2022-08-21T15:57:52;100557.75;;;27.89;100.00
12801;BME280;6464;42.494;27.470;2022-08-21T16:00:21;100485.91;;;27.56;100.00
12801;BME280;6464;42.494;27.470;2022-08-21T16:02:52;100573.03;;;27.90;100.00
12801;BME280;6464;42.494;27.470;2022-08-21T16:05:21;100546.88;;;27.41;100.00
12801;BME280;6464;42.494;27.470;2022-08-21T16:07:50;100503.09;;;27.26;100.00
12801;BME280;6464;42.494;27.470;2022-08-21T16:10:19;100524.94;;;27.54;100.00
12801;BME280;6464;42.494;27.470;2022-08-21T16:12:50;100508.09;;;27.21;100.00
12801;BME280;6464;42.494;27.470;2022-08-21T16:15:18;100535.50;;;27.37;100.00
12801;BME280;6464;42.494;27.470;2022-08-21T16:17:46;100534.75;;;27.35;100.00
12801;BME280;6464;42.494;27.470;2022-08-21T16:20:18;100527.38;;;27.47;100.00
12801;BME280;6464;42.494;27.470;2022-08-21T16:22:45;100512.69;;;27.40;100.00
12801;BME280;6464;42.494;27.470;2022-08-21T16:25:14;100523.50;;;27.50;100.00
12801;BME280;6464;42.494;27.470;2022-08-21T16:27:43;100503.00;;;27.37;100.00
12801;BME280;6464;42.494;27.470;2022-08-21T16:30:12;100430.59;;;27.10;100.00
12801;BME280;6464;42.494;27.470;2022-08-21T16:32:41;100508.69;;;27.54;100.00
12801;BME280;6464;42.494;27.470;2022-08-21T16:35:10;100465.50;;;27.23;100.00
12801;BME280;6464;42.494;27.470;2022-08-21T16:37:38;100477.91;;;27.26;100.00
12801;BME280;6464;42.494;27.470;2022-08-21T16:40:07;100443.94;;;27.02;100.00
12801;BME280;6464;42.494;27.470;2022-08-21T16:42:36;100443.69;;;27.34;100.00
12801;BME280;6464;42.494;27.470;2022-08-21T16:45:05;100448.53;;;27.40;100.00
12801;BME280;6464;42.494;27.470;2022-08-21T16:47:32;100442.56;;;27.37;100.00
12801;BME280;6464;42.494;27.470;2022-08-21T16:49:59;100446.97;;;27.28;100.00
12801;BME280;6464;42.494;27.470;2022-08-21T16:52:26;100445.81;;;27.31;100.00
12801;BME280;6464;42.494;27.470;2022-08-21T16:54:53;100397.78;;;26.75;100.00
12801;BME280;6464;42.494;27.470;2022-08-21T16:57:20;100401.59;;;26.72;100.00
12801;BME280;6464;42.494;27.470;2022-08-21T16:59:49;100399.75;;;26.73;100.00
12801;BME280;6464;42.494;27.470;2022-08-21T17:02:23;100368.13;;;26.73;100.00
12801;BME280;6464;42.494;27.470;2022-08-21T17:04:52;100377.84;;;27.05;100.00
12801;BME280;6464;42.494;27.470;2022-08-21T17:07:20;100332.28;;;26.71;100.00
12801;BME280;6464;42.494;27.470;2022-08-21T17:09:47;100364.59;;;26.92;100.00
12801;BME280;6464;42.494;27.470;2022-08-21T17:12:14;100342.66;;;26.85;100.00
12801;BME280;6464;42.494;27.470;2022-08-21T17:14:42;100303.94;;;26.75;100.00
12801;BME280;6464;42.494;27.470;2022-08-21T17:17:11;100347.94;;;26.97;100.00
12801;BME280;6464;42.494;27.470;2022-08-21T17:19:38;100353.75;;;27.02;100.00
12801;BME280;6464;42.494;27.470;2022-08-21T17:22:06;100356.19;;;26.95;100.00
12801;BME280;6464;42.494;27.470;2022-08-21T17:24:34;100291.97;;;26.49;100.00
12801;BME280;6464;42.494;27.470;2022-08-21T17:27:02;100327.13;;;26.68;100.00
12801;BME280;6464;42.494;27.470;2022-08-21T17:29:33;100305.91;;;26.73;100.00
12801;BME280;6464;42.494;27.470;2022-08-21T17:32:02;100319.03;;;26.87;100.00
12801;BME280;6464;42.494;27.470;2022-08-21T17:34:31;100324.31;;;26.79;100.00
12801;BME280;6464;42.494;27.470;2022-08-21T17:36:58;100320.03;;;26.77;100.00
12801;BME280;6464;42.494;27.470;2022-08-21T17:39:25;100344.94;;;26.80;100.00
12801;BME280;6464;42.494;27.470;2022-08-21T17:42:03;100362.72;;;26.83;100.00
12801;BME280;6464;42.494;27.470;2022-08-21T17:44:33;100377.28;;;26.91;100.00
12801;BME280;6464;42.494;27.470;2022-08-21T17:47:00;100375.81;;;26.68;100.00
12801;BME280;6464;42.494;27.470;2022-08-21T17:49:27;100363.53;;;26.45;100.00
12801;BME280;6464;42.494;27.470;2022-08-21T17:51:56;100338.88;;;26.38;100.00
12801;BME280;6464;42.494;27.470;2022-08-21T17:54:24;100377.97;;;26.55;100.00
12801;BME280;6464;42.494;27.470;2022-08-21T17:56:52;100303.69;;;26.09;100.00
12801;BME280;6464;42.494;27.470;2022-08-21T17:59:20;100353.72;;;26.44;100.00
12801;BME280;6464;42.494;27.470;2022-08-21T18:01:47;100374.53;;;26.62;100.00